Aérodrome :
LOGIN :

S'inscrire | Disclaimer

   EN    FR    IT 

 










Légende :    VFR   VFR Marginal   IFR   IFR Intensif   IFR Très Intensif
Visi : 
Plafond : 
>= 8 km
>= 3000ft
5 à 8 km
1000 à 3000 ft
1500m à 5 km
500 à 1000 ft
800 à 1500m
200 à 500 ft
< 800m
< 200 ft
Symboles :   Orages  Brouillard  Fortes neiges  Fortes précipitations  Vent > 20 kt
SIGMETs :   Divers  Orages  Givrage  Turbulence  Onde Orograph.  Cendres Volcan.







- Altitude de l'aérodrome : 38 ft
- Code IATA : ADX


EGQL - RAF Leuchars

DERNIER METAR :
  • 192350Z 24022KT 9999 -RADZ FEW026 BKN044 10/06 Q1000 BLU

METARs EXPIRÉS :
  • 192250Z 24021KT CAVOK 10/05 Q1000 BLU
  • 192150Z 24025KT CAVOK 09/05 Q0999 BLU

TAF TAF EGQL
Valide du 19 à 21h jusqu'au 20 à 06h UTC


191933Z 1921/2006 25032G44KT 9999 SCT035
PROB30
TEMPO 1921/2006 4000 SHRA SCT020CB
BECMG 2000/2003 24020G30KT
Pas de NOTAMs connus pour ce terrain.
2 SIGMETs publiés pour la FIR Scottish (EGPX) :
 
Turbulence forte
EGPX SIGMET 14 VALID 192100/200100 EGRR
EGPX SCOTTISH FIR SEV TURB FCST SE OF LINE N5912 W01000 - N6100 W00232 SFC/FL060 STNR NC=
Onde orographique forte
EGPX SIGMET 13 VALID 192100/200100 EGRR
EGPX SCOTTISH FIR SEV MTW FCST WI N5500 W00530 - N5355 W00530 - N5546 W00718 - N5801 W00339 - N5805 W00103 - N5500 E00020 - N5500 W00530 FL030/250 STNR NC=



MET'MAP, la Météo Aéronautique d'un coup d'oeil ! - Copyright ORBIFLY Décembre 2007 - Disclaimer

ORBIFLY MET'MAP TEAM :

Programmation & Développement : Alexandra Zaïnal
Conception & Développement : Baudouin d'Aumeries
Co-Programmation & Développement : Marc-Olivier Méhu
Soutien technique & logistique : Manuel Goepfert

Contact : metmap@orbifly.com




SOURCES & CREDITS :

   NOAA